sensor_id;sensor_type;location;lat;lon;timestamp;P1;durP1;ratioP1;P2;durP2;ratioP2
54923;SDS011;40825;52.270;20.984;2023-07-13T00:03:34;11.50;;;6.60;;
54923;SDS011;40825;52.270;20.984;2023-07-13T00:06:31;12.30;;;6.50;;
54923;SDS011;40825;52.270;20.984;2023-07-13T00:08:58;11.90;;;6.50;;
54923;SDS011;40825;52.270;20.984;2023-07-13T00:14:04;13.00;;;7.10;;
54923;SDS011;40825;52.270;20.984;2023-07-13T00:16:29;10.30;;;6.70;;
54923;SDS011;40825;52.270;20.984;2023-07-13T00:18:55;13.30;;;7.10;;
54923;SDS011;40825;52.270;20.984;2023-07-13T00:21:21;11.50;;;7.00;;
54923;SDS011;40825;52.270;20.984;2023-07-13T00:23:54;13.50;;;6.90;;
54923;SDS011;40825;52.270;20.984;2023-07-13T00:26:25;10.70;;;6.40;;
54923;SDS011;40825;52.270;20.984;2023-07-13T00:29:20;13.00;;;8.60;;
54923;SDS011;40825;52.270;20.984;2023-07-13T00:31:48;10.40;;;7.00;;
54923;SDS011;40825;52.270;20.984;2023-07-13T00:34:18;11.10;;;7.00;;
54923;SDS011;40825;52.270;20.984;2023-07-13T00:36:50;11.00;;;7.00;;
54923;SDS011;40825;52.270;20.984;2023-07-13T00:42:04;12.30;;;7.80;;
54923;SDS011;40825;52.270;20.984;2023-07-13T00:47:28;10.60;;;6.90;;
54923;SDS011;40825;52.270;20.984;2023-07-13T00:49:54;17.10;;;11.70;;
54923;SDS011;40825;52.270;20.984;2023-07-13T00:55:57;11.40;;;7.20;;
54923;SDS011;40825;52.270;20.984;2023-07-13T00:58:26;11.90;;;8.00;;
54923;SDS011;40825;52.270;20.984;2023-07-13T01:00:56;12.20;;;8.70;;
54923;SDS011;40825;52.270;20.984;2023-07-13T01:03:31;17.20;;;9.10;;
54923;SDS011;40825;52.270;20.984;2023-07-13T01:06:34;13.00;;;6.80;;
54923;SDS011;40825;52.270;20.984;2023-07-13T01:09:00;12.30;;;7.40;;
54923;SDS011;40825;52.270;20.984;2023-07-13T01:11:27;11.80;;;7.30;;
54923;SDS011;40825;52.270;20.984;2023-07-13T01:13:56;13.50;;;7.60;;
54923;SDS011;40825;52.270;20.984;2023-07-13T01:19:44;12.10;;;7.10;;
54923;SDS011;40825;52.270;20.984;2023-07-13T01:22:14;12.30;;;7.50;;
54923;SDS011;40825;52.270;20.984;2023-07-13T01:24:53;12.50;;;8.00;;
54923;SDS011;40825;52.270;20.984;2023-07-13T01:27:24;11.50;;;6.80;;
54923;SDS011;40825;52.270;20.984;2023-07-13T01:30:34;11.70;;;7.00;;
54923;SDS011;40825;52.270;20.984;2023-07-13T01:33:09;14.30;;;8.20;;
54923;SDS011;40825;52.270;20.984;2023-07-13T01:38:20;10.80;;;7.20;;
54923;SDS011;40825;52.270;20.984;2023-07-13T01:40:50;12.40;;;7.10;;
54923;SDS011;40825;52.270;20.984;2023-07-13T01:43:17;14.90;;;7.90;;
54923;SDS011;40825;52.270;20.984;2023-07-13T01:45:49;12.20;;;7.40;;
54923;SDS011;40825;52.270;20.984;2023-07-13T01:48:20;11.70;;;7.60;;
54923;SDS011;40825;52.270;20.984;2023-07-13T01:50:47;13.90;;;9.20;;
54923;SDS011;40825;52.270;20.984;2023-07-13T01:53:13;12.50;;;7.80;;
54923;SDS011;40825;52.270;20.984;2023-07-13T01:56:24;12.10;;;7.50;;
54923;SDS011;40825;52.270;20.984;2023-07-13T01:58:55;13.60;;;8.00;;
54923;SDS011;40825;52.270;20.984;2023-07-13T02:01:27;12.20;;;7.60;;
54923;SDS011;40825;52.270;20.984;2023-07-13T02:03:53;12.40;;;7.50;;
54923;SDS011;40825;52.270;20.984;2023-07-13T02:06:28;13.00;;;7.80;;
54923;SDS011;40825;52.270;20.984;2023-07-13T02:09:20;13.20;;;8.90;;
54923;SDS011;40825;52.270;20.984;2023-07-13T02:11:45;14.00;;;8.40;;
54923;SDS011;40825;52.270;20.984;2023-07-13T02:14:29;12.40;;;7.20;;
54923;SDS011;40825;52.270;20.984;2023-07-13T02:17:05;14.40;;;8.10;;
54923;SDS011;40825;52.270;20.984;2023-07-13T02:19:31;11.80;;;7.70;;
54923;SDS011;40825;52.270;20.984;2023-07-13T02:22:00;13.80;;;9.20;;
54923;SDS011;40825;52.270;20.984;2023-07-13T02:24:26;15.20;;;9.40;;
54923;SDS011;40825;52.270;20.984;2023-07-13T02:27:14;14.40;;;8.60;;
54923;SDS011;40825;52.270;20.984;2023-07-13T02:32:21;15.40;;;8.60;;
54923;SDS011;40825;52.270;20.984;2023-07-13T02:34:47;13.60;;;8.80;;
54923;SDS011;40825;52.270;20.984;2023-07-13T02:37:36;12.00;;;8.50;;
54923;SDS011;40825;52.270;20.984;2023-07-13T02:40:15;16.40;;;11.10;;
54923;SDS011;40825;52.270;20.984;2023-07-13T02:42:41;14.80;;;8.30;;
54923;SDS011;40825;52.270;20.984;2023-07-13T02:45:18;15.70;;;9.30;;
54923;SDS011;40825;52.270;20.984;2023-07-13T02:47:46;14.30;;;8.70;;
54923;SDS011;40825;52.270;20.984;2023-07-13T02:50:12;13.40;;;8.40;;
54923;SDS011;40825;52.270;20.984;2023-07-13T02:52:46;15.10;;;8.80;;
54923;SDS011;40825;52.270;20.984;2023-07-13T02:55:34;12.60;;;8.60;;
54923;SDS011;40825;52.270;20.984;2023-07-13T02:58:24;15.90;;;9.40;;
54923;SDS011;40825;52.270;20.984;2023-07-13T03:00:59;13.50;;;8.20;;
54923;SDS011;40825;52.270;20.984;2023-07-13T03:09:57;14.60;;;9.30;;
54923;SDS011;40825;52.270;20.984;2023-07-13T03:13:07;14.30;;;8.90;;
54923;SDS011;40825;52.270;20.984;2023-07-13T03:18:35;13.20;;;8.50;;
54923;SDS011;40825;52.270;20.984;2023-07-13T03:21:05;12.70;;;8.60;;
54923;SDS011;40825;52.270;20.984;2023-07-13T03:23:57;13.50;;;8.70;;
54923;SDS011;40825;52.270;20.984;2023-07-13T03:26:34;15.50;;;8.70;;
54923;SDS011;40825;52.270;20.984;2023-07-13T03:29:23;16.40;;;8.60;;
54923;SDS011;40825;52.270;20.984;2023-07-13T03:31:48;16.00;;;9.50;;
54923;SDS011;40825;52.270;20.984;2023-07-13T03:34:20;15.40;;;9.10;;
54923;SDS011;40825;52.270;20.984;2023-07-13T03:36:58;16.20;;;9.70;;
54923;SDS011;40825;52.270;20.984;2023-07-13T03:39:42;14.70;;;9.10;;
54923;SDS011;40825;52.270;20.984;2023-07-13T03:42:46;13.80;;;8.50;;
54923;SDS011;40825;52.270;20.984;2023-07-13T03:45:14;15.40;;;8.40;;
54923;SDS011;40825;52.270;20.984;2023-07-13T03:47:40;16.80;;;9.70;;
54923;SDS011;40825;52.270;20.984;2023-07-13T03:50:38;16.20;;;9.80;;
54923;SDS011;40825;52.270;20.984;2023-07-13T03:53:27;12.60;;;9.00;;
54923;SDS011;40825;52.270;20.984;2023-07-13T03:56:03;15.30;;;8.60;;
54923;SDS011;40825;52.270;20.984;2023-07-13T03:59:20;13.00;;;8.40;;
54923;SDS011;40825;52.270;20.984;2023-07-13T04:01:50;12.80;;;7.80;;
54923;SDS011;40825;52.270;20.984;2023-07-13T04:04:16;14.00;;;9.20;;
54923;SDS011;40825;52.270;20.984;2023-07-13T04:06:41;14.40;;;8.30;;
54923;SDS011;40825;52.270;20.984;2023-07-13T04:09:27;16.00;;;9.40;;
54923;SDS011;40825;52.270;20.984;2023-07-13T04:11:53;12.00;;;8.20;;
54923;SDS011;40825;52.270;20.984;2023-07-13T04:14:22;13.40;;;9.20;;
54923;SDS011;40825;52.270;20.984;2023-07-13T04:16:51;17.50;;;9.20;;
54923;SDS011;40825;52.270;20.984;2023-07-13T04:19:21;14.40;;;10.00;;
54923;SDS011;40825;52.270;20.984;2023-07-13T04:22:00;15.80;;;9.30;;
54923;SDS011;40825;52.270;20.984;2023-07-13T04:24:26;14.10;;;9.50;;
54923;SDS011;40825;52.270;20.984;2023-07-13T04:27:30;14.70;;;9.20;;
54923;SDS011;40825;52.270;20.984;2023-07-13T04:32:50;15.40;;;9.80;;
54923;SDS011;40825;52.270;20.984;2023-07-13T04:35:28;14.10;;;9.70;;
54923;SDS011;40825;52.270;20.984;2023-07-13T04:37:54;17.60;;;11.00;;
54923;SDS011;40825;52.270;20.984;2023-07-13T04:40:20;15.70;;;10.20;;
54923;SDS011;40825;52.270;20.984;2023-07-13T04:42:48;15.90;;;10.20;;
54923;SDS011;40825;52.270;20.984;2023-07-13T04:45:14;16.30;;;10.10;;
54923;SDS011;40825;52.270;20.984;2023-07-13T04:47:40;17.80;;;10.80;;
54923;SDS011;40825;52.270;20.984;2023-07-13T04:50:07;15.40;;;10.50;;
54923;SDS011;40825;52.270;20.984;2023-07-13T04:52:34;14.80;;;9.60;;
54923;SDS011;40825;52.270;20.984;2023-07-13T04:55:00;16.50;;;10.00;;
54923;SDS011;40825;52.270;20.984;2023-07-13T04:57:26;14.50;;;9.10;;
54923;SDS011;40825;52.270;20.984;2023-07-13T04:59:58;16.40;;;11.00;;
54923;SDS011;40825;52.270;20.984;2023-07-13T05:02:26;19.90;;;9.60;;
54923;SDS011;40825;52.270;20.984;2023-07-13T05:04:53;17.70;;;10.80;;
54923;SDS011;40825;52.270;20.984;2023-07-13T05:07:25;16.30;;;11.40;;
54923;SDS011;40825;52.270;20.984;2023-07-13T05:10:11;19.30;;;10.40;;
54923;SDS011;40825;52.270;20.984;2023-07-13T05:12:40;17.60;;;10.30;;
54923;SDS011;40825;52.270;20.984;2023-07-13T05:15:06;17.10;;;10.00;;
54923;SDS011;40825;52.270;20.984;2023-07-13T05:17:36;17.50;;;11.70;;
54923;SDS011;40825;52.270;20.984;2023-07-13T05:20:05;17.60;;;11.10;;
54923;SDS011;40825;52.270;20.984;2023-07-13T05:22:35;19.00;;;10.90;;
54923;SDS011;40825;52.270;20.984;2023-07-13T05:28:30;19.70;;;12.10;;
54923;SDS011;40825;52.270;20.984;2023-07-13T05:31:20;19.20;;;11.20;;
54923;SDS011;40825;52.270;20.984;2023-07-13T05:36:42;26.10;;;10.90;;
54923;SDS011;40825;52.270;20.984;2023-07-13T05:39:28;22.20;;;11.10;;
54923;SDS011;40825;52.270;20.984;2023-07-13T05:41:54;22.00;;;11.10;;
54923;SDS011;40825;52.270;20.984;2023-07-13T05:47:52;19.90;;;9.90;;
54923;SDS011;40825;52.270;20.984;2023-07-13T05:50:17;22.20;;;11.10;;
54923;SDS011;40825;52.270;20.984;2023-07-13T05:52:46;18.20;;;11.20;;
54923;SDS011;40825;52.270;20.984;2023-07-13T05:55:17;20.40;;;12.30;;
54923;SDS011;40825;52.270;20.984;2023-07-13T05:58:07;20.40;;;12.60;;
54923;SDS011;40825;52.270;20.984;2023-07-13T06:00:31;18.10;;;10.70;;
54923;SDS011;40825;52.270;20.984;2023-07-13T06:03:01;18.00;;;11.40;;
54923;SDS011;40825;52.270;20.984;2023-07-13T06:05:29;17.50;;;11.60;;
54923;SDS011;40825;52.270;20.984;2023-07-13T06:07:55;20.40;;;11.60;;
54923;SDS011;40825;52.270;20.984;2023-07-13T06:10:31;19.20;;;11.20;;
54923;SDS011;40825;52.270;20.984;2023-07-13T06:13:00;17.20;;;10.70;;
54923;SDS011;40825;52.270;20.984;2023-07-13T06:15:26;17.00;;;10.90;;
54923;SDS011;40825;52.270;20.984;2023-07-13T06:17:52;14.50;;;10.80;;
54923;SDS011;40825;52.270;20.984;2023-07-13T06:20:18;16.20;;;11.60;;
54923;SDS011;40825;52.270;20.984;2023-07-13T06:22:44;17.20;;;11.20;;
54923;SDS011;40825;52.270;20.984;2023-07-13T06:25:09;17.10;;;10.90;;
54923;SDS011;40825;52.270;20.984;2023-07-13T06:27:35;16.00;;;10.40;;
54923;SDS011;40825;52.270;20.984;2023-07-13T06:30:03;17.40;;;11.00;;
54923;SDS011;40825;52.270;20.984;2023-07-13T06:32:29;16.10;;;11.10;;
54923;SDS011;40825;52.270;20.984;2023-07-13T06:34:55;15.20;;;10.50;;
54923;SDS011;40825;52.270;20.984;2023-07-13T06:37:21;16.70;;;10.00;;
54923;SDS011;40825;52.270;20.984;2023-07-13T06:39:46;16.80;;;9.80;;
54923;SDS011;40825;52.270;20.984;2023-07-13T06:42:11;15.00;;;9.00;;
54923;SDS011;40825;52.270;20.984;2023-07-13T06:44:37;10.10;;;7.40;;
54923;SDS011;40825;52.270;20.984;2023-07-13T06:47:02;11.70;;;7.20;;
54923;SDS011;40825;52.270;20.984;2023-07-13T06:49:28;11.80;;;7.00;;
54923;SDS011;40825;52.270;20.984;2023-07-13T06:51:54;10.20;;;6.40;;
54923;SDS011;40825;52.270;20.984;2023-07-13T06:54:19;8.80;;;5.80;;
54923;SDS011;40825;52.270;20.984;2023-07-13T06:56:45;6.90;;;4.30;;
54923;SDS011;40825;52.270;20.984;2023-07-13T06:59:10;7.70;;;4.30;;
54923;SDS011;40825;52.270;20.984;2023-07-13T07:01:36;7.70;;;3.70;;
54923;SDS011;40825;52.270;20.984;2023-07-13T07:04:02;6.30;;;3.60;;
54923;SDS011;40825;52.270;20.984;2023-07-13T07:08:54;5.60;;;4.10;;
54923;SDS011;40825;52.270;20.984;2023-07-13T07:11:21;6.50;;;3.30;;
54923;SDS011;40825;52.270;20.984;2023-07-13T07:13:51;8.50;;;4.10;;
54923;SDS011;40825;52.270;20.984;2023-07-13T07:16:18;6.50;;;4.10;;
54923;SDS011;40825;52.270;20.984;2023-07-13T07:21:10;5.30;;;3.70;;
54923;SDS011;40825;52.270;20.984;2023-07-13T07:23:36;7.90;;;3.60;;
54923;SDS011;40825;52.270;20.984;2023-07-13T07:26:02;7.50;;;3.40;;
54923;SDS011;40825;52.270;20.984;2023-07-13T07:28:28;7.00;;;3.20;;
54923;SDS011;40825;52.270;20.984;2023-07-13T07:30:55;8.00;;;3.50;;
54923;SDS011;40825;52.270;20.984;2023-07-13T07:33:22;7.20;;;3.40;;
54923;SDS011;40825;52.270;20.984;2023-07-13T07:35:48;6.60;;;3.80;;
54923;SDS011;40825;52.270;20.984;2023-07-13T07:38:14;6.40;;;4.80;;
54923;SDS011;40825;52.270;20.984;2023-07-13T07:40:40;7.30;;;4.30;;
54923;SDS011;40825;52.270;20.984;2023-07-13T07:43:06;7.70;;;4.00;;
54923;SDS011;40825;52.270;20.984;2023-07-13T07:45:33;9.90;;;3.50;;
54923;SDS011;40825;52.270;20.984;2023-07-13T07:47:59;6.00;;;3.70;;
54923;SDS011;40825;52.270;20.984;2023-07-13T07:50:25;5.80;;;2.80;;
54923;SDS011;40825;52.270;20.984;2023-07-13T07:52:51;5.00;;;2.60;;
54923;SDS011;40825;52.270;20.984;2023-07-13T07:55:17;6.10;;;3.50;;
54923;SDS011;40825;52.270;20.984;2023-07-13T07:57:42;7.00;;;3.00;;
54923;SDS011;40825;52.270;20.984;2023-07-13T08:00:08;6.70;;;2.90;;
54923;SDS011;40825;52.270;20.984;2023-07-13T08:02:34;7.00;;;2.80;;
54923;SDS011;40825;52.270;20.984;2023-07-13T08:05:00;7.00;;;3.20;;
54923;SDS011;40825;52.270;20.984;2023-07-13T08:07:25;6.20;;;3.70;;
54923;SDS011;40825;52.270;20.984;2023-07-13T08:09:54;9.80;;;3.60;;
54923;SDS011;40825;52.270;20.984;2023-07-13T08:12:19;6.30;;;3.70;;
54923;SDS011;40825;52.270;20.984;2023-07-13T08:14:45;7.20;;;3.90;;
54923;SDS011;40825;52.270;20.984;2023-07-13T08:17:14;8.90;;;4.30;;
54923;SDS011;40825;52.270;20.984;2023-07-13T08:19:39;6.50;;;3.20;;
54923;SDS011;40825;52.270;20.984;2023-07-13T08:22:05;6.70;;;3.70;;
54923;SDS011;40825;52.270;20.984;2023-07-13T08:24:30;7.40;;;3.70;;
54923;SDS011;40825;52.270;20.984;2023-07-13T08:26:56;7.70;;;4.30;;
54923;SDS011;40825;52.270;20.984;2023-07-13T08:29:21;6.80;;;4.10;;
54923;SDS011;40825;52.270;20.984;2023-07-13T08:31:48;7.60;;;4.30;;
54923;SDS011;40825;52.270;20.984;2023-07-13T08:34:13;6.10;;;4.20;;
54923;SDS011;40825;52.270;20.984;2023-07-13T08:36:40;8.30;;;3.90;;
54923;SDS011;40825;52.270;20.984;2023-07-13T08:39:05;5.80;;;3.30;;
54923;SDS011;40825;52.270;20.984;2023-07-13T08:41:31;6.60;;;3.90;;
54923;SDS011;40825;52.270;20.984;2023-07-13T08:43:58;6.00;;;3.60;;
54923;SDS011;40825;52.270;20.984;2023-07-13T08:46:28;5.80;;;3.30;;
54923;SDS011;40825;52.270;20.984;2023-07-13T08:48:57;5.50;;;3.20;;
54923;SDS011;40825;52.270;20.984;2023-07-13T08:51:28;6.90;;;3.50;;
54923;SDS011;40825;52.270;20.984;2023-07-13T08:54:50;7.00;;;3.90;;
54923;SDS011;40825;52.270;20.984;2023-07-13T08:57:11;5.60;;;3.60;;
54923;SDS011;40825;52.270;20.984;2023-07-13T08:59:39;6.10;;;4.00;;
54923;SDS011;40825;52.270;20.984;2023-07-13T09:15:21;4.90;;;3.30;;
54923;SDS011;40825;52.270;20.984;2023-07-13T09:17:51;5.70;;;3.40;;
54923;SDS011;40825;52.270;20.984;2023-07-13T09:20:34;7.30;;;4.20;;
54923;SDS011;40825;52.270;20.984;2023-07-13T09:23:05;6.10;;;4.20;;
54923;SDS011;40825;52.270;20.984;2023-07-13T09:25:38;9.10;;;3.80;;
54923;SDS011;40825;52.270;20.984;2023-07-13T09:28:15;5.40;;;3.10;;
54923;SDS011;40825;52.270;20.984;2023-07-13T09:33:13;5.50;;;3.00;;
54923;SDS011;40825;52.270;20.984;2023-07-13T09:35:39;7.00;;;3.20;;
54923;SDS011;40825;52.270;20.984;2023-07-13T09:40:44;6.90;;;3.50;;
54923;SDS011;40825;52.270;20.984;2023-07-13T09:43:34;8.30;;;3.50;;
54923;SDS011;40825;52.270;20.984;2023-07-13T09:46:00;5.80;;;3.00;;
54923;SDS011;40825;52.270;20.984;2023-07-13T09:48:26;5.30;;;3.30;;
54923;SDS011;40825;52.270;20.984;2023-07-13T09:51:04;8.30;;;2.90;;
54923;SDS011;40825;52.270;20.984;2023-07-13T09:53:43;6.70;;;2.90;;
54923;SDS011;40825;52.270;20.984;2023-07-13T09:56:20;6.10;;;2.70;;
54923;SDS011;40825;52.270;20.984;2023-07-13T09:58:51;6.40;;;3.00;;
54923;SDS011;40825;52.270;20.984;2023-07-13T10:01:39;6.40;;;3.00;;
54923;SDS011;40825;52.270;20.984;2023-07-13T10:04:11;7.40;;;3.00;;
54923;SDS011;40825;52.270;20.984;2023-07-13T10:06:38;5.40;;;2.20;;
54923;SDS011;40825;52.270;20.984;2023-07-13T10:09:08;5.80;;;2.80;;
54923;SDS011;40825;52.270;20.984;2023-07-13T10:11:44;6.90;;;3.20;;
54923;SDS011;40825;52.270;20.984;2023-07-13T10:16:48;7.30;;;3.60;;
54923;SDS011;40825;52.270;20.984;2023-07-13T10:19:23;7.40;;;3.00;;
54923;SDS011;40825;52.270;20.984;2023-07-13T10:21:57;7.00;;;3.90;;
54923;SDS011;40825;52.270;20.984;2023-07-13T10:24:35;9.30;;;3.70;;
54923;SDS011;40825;52.270;20.984;2023-07-13T10:29:45;8.60;;;3.20;;
54923;SDS011;40825;52.270;20.984;2023-07-13T10:32:17;7.90;;;4.10;;
54923;SDS011;40825;52.270;20.984;2023-07-13T10:34:49;8.30;;;3.70;;
54923;SDS011;40825;52.270;20.984;2023-07-13T10:37:23;8.20;;;4.60;;
54923;SDS011;40825;52.270;20.984;2023-07-13T10:42:45;6.10;;;3.20;;
54923;SDS011;40825;52.270;20.984;2023-07-13T10:45:18;8.10;;;3.10;;
54923;SDS011;40825;52.270;20.984;2023-07-13T10:47:47;6.20;;;2.70;;
54923;SDS011;40825;52.270;20.984;2023-07-13T10:53:49;5.10;;;2.50;;
54923;SDS011;40825;52.270;20.984;2023-07-13T10:56:01;6.90;;;3.20;;
54923;SDS011;40825;52.270;20.984;2023-07-13T10:58:46;7.50;;;2.80;;
54923;SDS011;40825;52.270;20.984;2023-07-13T11:04:16;7.70;;;3.10;;
54923;SDS011;40825;52.270;20.984;2023-07-13T11:06:48;8.50;;;3.40;;
54923;SDS011;40825;52.270;20.984;2023-07-13T11:12:07;8.00;;;3.20;;
54923;SDS011;40825;52.270;20.984;2023-07-13T11:17:50;7.30;;;4.20;;
54923;SDS011;40825;52.270;20.984;2023-07-13T11:20:30;10.20;;;4.90;;
54923;SDS011;40825;52.270;20.984;2023-07-13T11:26:46;10.10;;;4.80;;
54923;SDS011;40825;52.270;20.984;2023-07-13T11:29:37;10.20;;;4.80;;
54923;SDS011;40825;52.270;20.984;2023-07-13T11:32:24;10.80;;;5.00;;
54923;SDS011;40825;52.270;20.984;2023-07-13T11:35:28;10.80;;;5.30;;
54923;SDS011;40825;52.270;20.984;2023-07-13T11:38:08;11.10;;;5.30;;
54923;SDS011;40825;52.270;20.984;2023-07-13T11:41:10;13.50;;;5.70;;
54923;SDS011;40825;52.270;20.984;2023-07-13T11:44:13;13.60;;;5.80;;
54923;SDS011;40825;52.270;20.984;2023-07-13T11:47:22;12.00;;;5.30;;
54923;SDS011;40825;52.270;20.984;2023-07-13T11:50:21;15.70;;;7.40;;
54923;SDS011;40825;52.270;20.984;2023-07-13T11:53:20;15.50;;;6.80;;
54923;SDS011;40825;52.270;20.984;2023-07-13T11:55:49;13.80;;;5.90;;
54923;SDS011;40825;52.270;20.984;2023-07-13T11:58:44;16.30;;;7.10;;
54923;SDS011;40825;52.270;20.984;2023-07-13T12:01:21;19.30;;;7.90;;
54923;SDS011;40825;52.270;20.984;2023-07-13T12:04:01;17.20;;;7.90;;
54923;SDS011;40825;52.270;20.984;2023-07-13T12:06:57;19.30;;;8.20;;
54923;SDS011;40825;52.270;20.984;2023-07-13T12:09:30;14.80;;;6.70;;
54923;SDS011;40825;52.270;20.984;2023-07-13T12:12:12;14.10;;;6.30;;
54923;SDS011;40825;52.270;20.984;2023-07-13T12:14:42;12.20;;;6.40;;
54923;SDS011;40825;52.270;20.984;2023-07-13T12:17:18;10.00;;;5.10;;
54923;SDS011;40825;52.270;20.984;2023-07-13T12:26:24;9.70;;;4.60;;
54923;SDS011;40825;52.270;20.984;2023-07-13T12:28:52;9.00;;;4.70;;
54923;SDS011;40825;52.270;20.984;2023-07-13T12:36:59;10.00;;;5.70;;
54923;SDS011;40825;52.270;20.984;2023-07-13T12:39:38;11.50;;;5.90;;
54923;SDS011;40825;52.270;20.984;2023-07-13T12:45:25;9.60;;;5.60;;
54923;SDS011;40825;52.270;20.984;2023-07-13T12:47:54;10.90;;;5.30;;
54923;SDS011;40825;52.270;20.984;2023-07-13T12:50:40;10.40;;;5.50;;
54923;SDS011;40825;52.270;20.984;2023-07-13T12:53:15;11.90;;;4.50;;
54923;SDS011;40825;52.270;20.984;2023-07-13T12:56:08;10.50;;;5.70;;
54923;SDS011;40825;52.270;20.984;2023-07-13T12:58:41;10.30;;;5.50;;
54923;SDS011;40825;52.270;20.984;2023-07-13T13:01:28;11.40;;;5.70;;
54923;SDS011;40825;52.270;20.984;2023-07-13T13:04:19;12.10;;;5.90;;
54923;SDS011;40825;52.270;20.984;2023-07-13T13:06:47;12.50;;;5.30;;
54923;SDS011;40825;52.270;20.984;2023-07-13T13:09:16;12.30;;;6.40;;
54923;SDS011;40825;52.270;20.984;2023-07-13T13:11:47;11.00;;;5.70;;
54923;SDS011;40825;52.270;20.984;2023-07-13T13:14:13;11.20;;;5.40;;
54923;SDS011;40825;52.270;20.984;2023-07-13T13:16:46;13.10;;;5.60;;
54923;SDS011;40825;52.270;20.984;2023-07-13T13:19:34;13.50;;;6.10;;
54923;SDS011;40825;52.270;20.984;2023-07-13T13:22:01;12.10;;;4.50;;
54923;SDS011;40825;52.270;20.984;2023-07-13T13:24:37;12.80;;;4.60;;
54923;SDS011;40825;52.270;20.984;2023-07-13T13:27:14;10.80;;;4.50;;
54923;SDS011;40825;52.270;20.984;2023-07-13T13:29:46;13.30;;;5.10;;
54923;SDS011;40825;52.270;20.984;2023-07-13T13:32:14;12.60;;;4.60;;
54923;SDS011;40825;52.270;20.984;2023-07-13T13:34:41;11.20;;;4.90;;
54923;SDS011;40825;52.270;20.984;2023-07-13T13:37:22;10.90;;;5.00;;
54923;SDS011;40825;52.270;20.984;2023-07-13T13:39:51;14.80;;;6.30;;
54923;SDS011;40825;52.270;20.984;2023-07-13T13:42:19;11.90;;;5.10;;
54923;SDS011;40825;52.270;20.984;2023-07-13T13:44:47;11.60;;;4.90;;
54923;SDS011;40825;52.270;20.984;2023-07-13T13:47:32;13.60;;;5.50;;
54923;SDS011;40825;52.270;20.984;2023-07-13T13:50:22;11.10;;;5.30;;
54923;SDS011;40825;52.270;20.984;2023-07-13T13:52:48;16.60;;;6.40;;
54923;SDS011;40825;52.270;20.984;2023-07-13T13:55:18;13.20;;;5.70;;
54923;SDS011;40825;52.270;20.984;2023-07-13T13:57:46;13.70;;;5.80;;
54923;SDS011;40825;52.270;20.984;2023-07-13T14:00:16;12.20;;;5.60;;
54923;SDS011;40825;52.270;20.984;2023-07-13T14:02:43;11.30;;;5.80;;
54923;SDS011;40825;52.270;20.984;2023-07-13T14:05:18;14.20;;;5.70;;
54923;SDS011;40825;52.270;20.984;2023-07-13T14:07:50;16.10;;;6.30;;
54923;SDS011;40825;52.270;20.984;2023-07-13T14:10:16;12.90;;;6.10;;
54923;SDS011;40825;52.270;20.984;2023-07-13T14:13:02;14.80;;;6.70;;
54923;SDS011;40825;52.270;20.984;2023-07-13T14:15:30;12.70;;;5.70;;
54923;SDS011;40825;52.270;20.984;2023-07-13T14:17:56;12.60;;;7.50;;
54923;SDS011;40825;52.270;20.984;2023-07-13T14:20:23;12.60;;;6.30;;
54923;SDS011;40825;52.270;20.984;2023-07-13T14:22:51;12.40;;;6.80;;
54923;SDS011;40825;52.270;20.984;2023-07-13T14:25:18;14.40;;;6.40;;
54923;SDS011;40825;52.270;20.984;2023-07-13T14:27:49;11.00;;;6.30;;
54923;SDS011;40825;52.270;20.984;2023-07-13T14:30:29;14.70;;;6.40;;
54923;SDS011;40825;52.270;20.984;2023-07-13T14:32:55;12.70;;;6.70;;
54923;SDS011;40825;52.270;20.984;2023-07-13T14:35:44;15.00;;;7.10;;
54923;SDS011;40825;52.270;20.984;2023-07-13T14:38:17;13.60;;;7.40;;
54923;SDS011;40825;52.270;20.984;2023-07-13T14:40:45;13.70;;;7.20;;
54923;SDS011;40825;52.270;20.984;2023-07-13T14:43:54;15.90;;;8.10;;
54923;SDS011;40825;52.270;20.984;2023-07-13T14:46:29;20.10;;;9.30;;
54923;SDS011;40825;52.270;20.984;2023-07-13T14:49:03;17.80;;;9.70;;
54923;SDS011;40825;52.270;20.984;2023-07-13T14:51:31;16.90;;;8.50;;
54923;SDS011;40825;52.270;20.984;2023-07-13T14:54:01;16.10;;;8.60;;
54923;SDS011;40825;52.270;20.984;2023-07-13T14:56:28;16.50;;;9.60;;
54923;SDS011;40825;52.270;20.984;2023-07-13T14:58:54;17.50;;;8.60;;
54923;SDS011;40825;52.270;20.984;2023-07-13T15:01:34;17.40;;;9.00;;
54923;SDS011;40825;52.270;20.984;2023-07-13T15:04:23;15.60;;;8.60;;
54923;SDS011;40825;52.270;20.984;2023-07-13T15:06:55;15.20;;;8.50;;
54923;SDS011;40825;52.270;20.984;2023-07-13T15:09:25;14.70;;;8.40;;
54923;SDS011;40825;52.270;20.984;2023-07-13T15:11:55;12.80;;;8.20;;
54923;SDS011;40825;52.270;20.984;2023-07-13T15:14:31;14.30;;;9.40;;
54923;SDS011;40825;52.270;20.984;2023-07-13T15:17:00;16.80;;;10.40;;
54923;SDS011;40825;52.270;20.984;2023-07-13T15:19:28;14.70;;;8.80;;
54923;SDS011;40825;52.270;20.984;2023-07-13T15:21:56;16.00;;;10.10;;
54923;SDS011;40825;52.270;20.984;2023-07-13T15:24:41;19.00;;;10.30;;
54923;SDS011;40825;52.270;20.984;2023-07-13T15:27:10;14.50;;;9.80;;
54923;SDS011;40825;52.270;20.984;2023-07-13T15:29:37;16.30;;;11.10;;
54923;SDS011;40825;52.270;20.984;2023-07-13T15:32:15;16.10;;;10.10;;
54923;SDS011;40825;52.270;20.984;2023-07-13T15:34:47;15.30;;;10.10;;
54923;SDS011;40825;52.270;20.984;2023-07-13T15:37:18;14.30;;;9.10;;
54923;SDS011;40825;52.270;20.984;2023-07-13T15:39:48;15.50;;;9.40;;
54923;SDS011;40825;52.270;20.984;2023-07-13T15:45:25;11.00;;;7.10;;
54923;SDS011;40825;52.270;20.984;2023-07-13T15:48:21;11.20;;;7.50;;
54923;SDS011;40825;52.270;20.984;2023-07-13T15:50:56;10.70;;;6.50;;
54923;SDS011;40825;52.270;20.984;2023-07-13T15:53:33;11.20;;;6.70;;
54923;SDS011;40825;52.270;20.984;2023-07-13T15:56:01;10.90;;;6.80;;
54923;SDS011;40825;52.270;20.984;2023-07-13T15:58:37;11.20;;;6.10;;
54923;SDS011;40825;52.270;20.984;2023-07-13T16:01:08;10.40;;;7.30;;
54923;SDS011;40825;52.270;20.984;2023-07-13T16:03:39;10.60;;;5.80;;
54923;SDS011;40825;52.270;20.984;2023-07-13T16:06:26;9.70;;;6.00;;
54923;SDS011;40825;52.270;20.984;2023-07-13T16:09:07;11.90;;;6.40;;
54923;SDS011;40825;52.270;20.984;2023-07-13T16:11:41;11.50;;;7.50;;
54923;SDS011;40825;52.270;20.984;2023-07-13T16:14:10;10.30;;;6.50;;
54923;SDS011;40825;52.270;20.984;2023-07-13T16:17:19;11.70;;;6.30;;
54923;SDS011;40825;52.270;20.984;2023-07-13T16:19:48;11.20;;;6.60;;
54923;SDS011;40825;52.270;20.984;2023-07-13T16:22:15;9.70;;;6.70;;
54923;SDS011;40825;52.270;20.984;2023-07-13T16:25:09;12.00;;;6.10;;
54923;SDS011;40825;52.270;20.984;2023-07-13T16:27:42;10.60;;;6.30;;
54923;SDS011;40825;52.270;20.984;2023-07-13T16:30:15;11.20;;;6.00;;
54923;SDS011;40825;52.270;20.984;2023-07-13T16:32:52;11.60;;;7.10;;
54923;SDS011;40825;52.270;20.984;2023-07-13T16:35:39;12.80;;;7.30;;
54923;SDS011;40825;52.270;20.984;2023-07-13T16:38:18;10.90;;;6.60;;
54923;SDS011;40825;52.270;20.984;2023-07-13T16:41:19;11.90;;;6.80;;
54923;SDS011;40825;52.270;20.984;2023-07-13T16:43:47;10.90;;;7.20;;
54923;SDS011;40825;52.270;20.984;2023-07-13T16:46:13;13.10;;;6.80;;
54923;SDS011;40825;52.270;20.984;2023-07-13T16:48:47;11.70;;;7.40;;
54923;SDS011;40825;52.270;20.984;2023-07-13T16:51:36;13.00;;;7.30;;